Airfield :







YOU CAN JOIN US ON...

 
LOGIN :

Register | Disclaimer

   EN    FR    IT 

 









Legend :    VFR   Marginal VFR   IFR   Intensive IFR   Very Intensive IFR
Visi :
Ceiling :
>= 8 km
>= 3000ft
5 to 8 km
1000 to 3000 ft
1500m to 5 km
500 to 1000 ft
800 to 1500m
200 to 500 ft
< 800m
< 200 ft
Symbols :   Thunderstorms  Fog  Heavy snow  Heavy precipitations  Wind > 20 kt






- Airport Elevation : 1194 ft


KPSF - Pittsfield Municipal

CURRENT METAR :
  • 192154Z AUTO 31005KT 10SM CLR 24/12 A3011 RMK AO2 SLP173 T02440117

EXPIRED METARs :
  • 192054Z AUTO VRB04KT 10SM CLR 24/12 A3011 RMK AO2 SLP174 T02440122 56005
  • 191954Z AUTO 28006KT 10SM FEW049 24/13 A3011 RMK AO2 SLP174 T02440128
  • 191854Z AUTO 30008KT 10SM BKN049 23/13 A3012 RMK AO2 SLP177 T02330128
  • 191754Z AUTO 31006KT 10SM FEW046 24/12 A3013 RMK AO2 SLP178 T02390122 10244 20167 56004

TAF KPSF
Valid from the 19 at 18:00 until the 20 at 18:00 UTC


191720Z 1918/2018 31006KT P6SM SCT040
FM200100 00000KT P6SM SCT250
FM201300 25006KT P6SM FEW050 BKN200
KZBW FIR / North America



MET'MAP, your aeronautical weather chart ! - Copyright ORBIFLY December 2007 - Disclaimer

ORBIFLY MET'MAP TEAM :

Programming & Development : Alexandra Zaïnal
Original concept : Baudouin d'Aumeries
Technical & hardware support : Manuel Goepfert
Assistance : Marc-Olivier Méhu




SOURCES & CREDITS :

   NOAA